createdAt,value
2018-05-11T00:00:49.264Z,13.67
2018-05-11T00:03:50.534Z,5.37
2018-05-11T00:06:51.925Z,3.43
2018-05-11T00:09:53.179Z,10.67
2018-05-11T00:12:54.432Z,6.53
2018-05-11T00:15:55.689Z,8.60
2018-05-11T00:18:56.985Z,7.23
2018-05-11T00:21:58.250Z,6.13
2018-05-11T00:24:59.497Z,6.23
2018-05-11T00:28:00.792Z,7.30
2018-05-11T00:31:02.810Z,5.17
2018-05-11T00:34:04.074Z,4.00
2018-05-11T00:37:05.366Z,4.97
2018-05-11T00:40:06.606Z,6.63
2018-05-11T00:43:07.859Z,8.00
2018-05-11T00:46:09.102Z,13.10
2018-05-11T00:49:11.126Z,9.23
2018-05-11T00:52:12.369Z,7.93
2018-05-11T00:55:32.237Z,9.87
2018-05-11T00:58:36.898Z,10.33
2018-05-11T01:01:38.217Z,9.10
2018-05-11T01:04:39.496Z,8.73
2018-05-11T01:07:40.743Z,8.07
2018-05-11T01:10:42.023Z,7.00
2018-05-11T01:13:43.310Z,10.43
2018-05-11T01:16:44.574Z,14.80
2018-05-11T01:19:45.842Z,11.00
2018-05-11T01:22:47.097Z,7.67
2018-05-11T01:25:48.344Z,6.43
2018-05-11T01:28:50.322Z,9.30
2018-05-11T01:31:51.590Z,8.13
2018-05-11T01:34:53.630Z,11.73
2018-05-11T01:37:54.898Z,6.27
2018-05-11T01:40:56.161Z,13.30
2018-05-11T01:43:57.425Z,10.30
2018-05-11T01:46:58.682Z,8.67
2018-05-11T01:49:59.942Z,8.00
2018-05-11T01:53:01.187Z,7.93
2018-05-11T01:56:02.465Z,12.27
2018-05-11T01:59:03.691Z,13.53
2018-05-11T02:02:05.692Z,11.20
2018-05-11T02:05:06.984Z,11.53
2018-05-11T02:08:08.264Z,12.73
2018-05-11T02:11:09.533Z,9.70
2018-05-11T02:14:10.790Z,11.13
2018-05-11T02:17:12.033Z,12.70
2018-05-11T02:20:13.314Z,10.50
2018-05-11T02:23:14.579Z,15.43
2018-05-11T02:26:15.813Z,8.63
2018-05-11T02:29:17.066Z,13.63
2018-05-11T02:32:18.322Z,10.73
2018-05-11T02:35:19.607Z,10.53
2018-05-11T02:38:20.875Z,21.50
2018-05-11T02:41:22.188Z,10.63
2018-05-11T02:44:24.193Z,18.03
2018-05-11T02:47:25.468Z,10.03
2018-05-11T02:50:26.722Z,14.80
2018-05-11T02:53:27.968Z,16.53
2018-05-11T02:56:29.212Z,12.47
2018-05-11T02:59:31.196Z,20.63
2018-05-11T03:02:33.212Z,12.00
2018-05-11T03:05:34.444Z,12.80
2018-05-11T03:08:36.426Z,12.07
2018-05-11T03:11:38.434Z,16.90
2018-05-11T03:14:39.714Z,11.70
2018-05-11T03:17:41.718Z,16.33
2018-05-11T03:20:42.977Z,13.17
2018-05-11T03:23:44.234Z,16.40
2018-05-11T03:26:45.483Z,14.03
2018-05-11T03:29:46.755Z,11.30
2018-05-11T03:32:48.016Z,9.63
2018-05-11T03:35:49.277Z,12.00
2018-05-11T03:38:50.546Z,12.97
2018-05-11T03:41:51.792Z,10.67
2018-05-11T03:44:53.062Z,12.03
2018-05-11T03:47:54.317Z,13.63
2018-05-11T03:50:55.551Z,16.53
2018-05-11T03:53:58.404Z,17.20
2018-05-11T03:57:00.565Z,14.70
2018-05-11T04:00:01.948Z,19.37
2018-05-11T04:03:22.429Z,16.33
2018-05-11T04:06:42.204Z,12.13
2018-05-11T04:09:45.285Z,17.40
2018-05-11T04:12:46.538Z,11.23
2018-05-11T04:15:47.777Z,12.57
2018-05-11T04:18:49.018Z,11.80
2018-05-11T04:21:50.262Z,13.07
2018-05-11T04:24:52.286Z,21.17
2018-05-11T04:27:53.541Z,13.83
2018-05-11T04:30:54.825Z,20.37
2018-05-11T04:33:56.133Z,12.10
2018-05-11T04:36:58.144Z,12.07
2018-05-11T04:39:59.396Z,14.93
2018-05-11T04:43:00.622Z,20.60
2018-05-11T04:46:01.860Z,14.57
2018-05-11T04:49:03.146Z,15.97
2018-05-11T04:52:04.405Z,19.07
2018-05-11T04:55:05.689Z,22.80
2018-05-11T04:58:07.669Z,18.03
2018-05-11T05:01:09.661Z,18.13
2018-05-11T05:04:11.642Z,23.60
2018-05-11T05:07:13.609Z,19.83
2018-05-11T05:10:15.605Z,27.40
2018-05-11T05:13:17.626Z,15.90
2018-05-11T05:16:18.896Z,29.17
2018-05-11T05:19:20.189Z,25.77
2018-05-11T05:22:21.453Z,22.67
2018-05-11T05:25:22.694Z,31.07
2018-05-11T05:28:23.950Z,26.47
2018-05-11T05:31:25.258Z,24.67
2018-05-11T05:34:27.234Z,26.53
2018-05-11T05:37:29.404Z,33.40
2018-05-11T05:40:30.661Z,23.70
2018-05-11T05:43:32.021Z,26.37
2018-05-11T05:46:33.310Z,23.40
2018-05-11T05:49:35.294Z,22.90
2018-05-11T05:52:37.987Z,24.13
2018-05-11T05:55:39.985Z,31.57
2018-05-11T05:58:41.233Z,27.80
2018-05-11T06:01:43.200Z,22.27
2018-05-11T06:04:44.526Z,27.90
2018-05-11T06:07:45.786Z,30.30
2018-05-11T06:10:47.079Z,23.30
2018-05-11T06:13:48.302Z,30.53
2018-05-11T06:16:49.538Z,27.70
2018-05-11T06:19:51.542Z,33.27
2018-05-11T06:22:52.783Z,38.07
2018-05-11T06:25:54.765Z,35.93
2018-05-11T06:28:56.773Z,45.03
2018-05-11T06:31:58.014Z,43.47
2018-05-11T06:34:59.241Z,43.47
2018-05-11T06:38:00.491Z,55.20
2018-05-11T06:41:01.761Z,32.93
2018-05-11T06:44:03.014Z,56.67
2018-05-11T06:47:04.249Z,45.00
2018-05-11T06:50:05.494Z,36.20
2018-05-11T06:53:06.735Z,142.83
2018-05-11T06:56:08.730Z,34.90
2018-05-11T06:59:09.959Z,36.27
2018-05-11T07:02:11.179Z,31.50
2018-05-11T07:05:12.408Z,32.67
2018-05-11T07:08:14.366Z,36.90
2018-05-11T07:11:15.614Z,25.30
2018-05-11T07:14:16.881Z,29.40
2018-05-11T07:17:18.129Z,29.27
2018-05-11T07:20:19.377Z,25.40
2018-05-11T07:23:20.610Z,23.03
2018-05-11T07:26:22.596Z,24.47
2018-05-11T07:29:23.859Z,31.07
2018-05-11T07:32:25.106Z,27.93
2018-05-11T07:35:27.103Z,22.93
2018-05-11T07:38:28.334Z,25.90
2018-05-11T07:41:29.601Z,18.93
2018-05-11T07:44:30.867Z,28.83
2018-05-11T07:47:32.138Z,25.53
2018-05-11T07:50:34.138Z,16.67
2018-05-11T07:53:35.385Z,22.57
2018-05-11T07:56:37.359Z,21.57
2018-05-11T07:59:39.305Z,28.33
2018-05-11T08:02:40.546Z,19.97
2018-05-11T08:05:41.775Z,28.47
2018-05-11T08:08:43.801Z,23.50
2018-05-11T08:11:45.080Z,21.10
2018-05-11T08:14:46.340Z,17.60
2018-05-11T08:17:47.621Z,27.27
2018-05-11T08:20:48.893Z,20.03
2018-05-11T08:23:50.902Z,27.97
2018-05-11T08:26:52.201Z,19.57
2018-05-11T08:29:53.413Z,17.83
2018-05-11T08:32:55.412Z,19.70
2018-05-11T08:35:56.741Z,22.00
2018-05-11T08:38:58.649Z,20.50
2018-05-11T08:41:59.916Z,15.43
2018-05-11T08:45:01.176Z,18.70
2018-05-11T08:48:02.443Z,17.17
2018-05-11T08:51:03.683Z,21.53
2018-05-11T08:54:05.693Z,26.87
2018-05-11T08:57:06.952Z,20.50
2018-05-11T09:00:08.225Z,17.63
2018-05-11T09:03:09.499Z,19.37
2018-05-11T09:06:10.776Z,24.50
2018-05-11T09:09:12.034Z,17.30
2018-05-11T09:12:13.258Z,20.43
2018-05-11T09:15:16.057Z,16.80
2018-05-11T09:18:18.068Z,24.77
2018-05-11T09:21:19.313Z,19.17
2018-05-11T09:24:20.535Z,14.40
2018-05-11T09:27:21.774Z,14.47
2018-05-11T09:30:23.057Z,13.67
2018-05-11T09:33:24.295Z,19.80
2018-05-11T09:36:25.546Z,18.80
2018-05-11T09:39:26.923Z,20.40
2018-05-11T09:42:28.109Z,17.70
2018-05-11T09:45:29.412Z,26.93
2018-05-11T09:48:30.696Z,15.00
2018-05-11T09:51:31.964Z,11.97
2018-05-11T09:54:33.258Z,23.63
2018-05-11T09:57:34.525Z,15.57
2018-05-11T10:00:35.826Z,17.63
2018-05-11T10:03:37.812Z,17.70
2018-05-11T10:06:39.091Z,15.53
2018-05-11T10:09:40.370Z,19.07
2018-05-11T10:12:41.644Z,18.30
2018-05-11T10:15:42.904Z,12.30
2018-05-11T10:18:44.164Z,16.83
2018-05-11T10:21:45.395Z,14.30
2018-05-11T10:24:46.675Z,20.50
2018-05-11T10:27:47.918Z,21.00
2018-05-11T10:30:49.147Z,18.27
2018-05-11T10:33:50.413Z,15.90
2018-05-11T10:36:51.677Z,20.00
2018-05-11T10:39:53.035Z,17.83
2018-05-11T10:42:54.203Z,19.67
2018-05-11T10:45:55.459Z,16.13
2018-05-11T10:48:56.709Z,14.90
2018-05-11T10:51:58.695Z,18.77
2018-05-11T10:54:59.951Z,13.60
2018-05-11T10:58:01.194Z,20.27
2018-05-11T11:01:02.478Z,15.00
2018-05-11T11:04:03.731Z,15.80
2018-05-11T11:07:04.983Z,14.47
2018-05-11T11:10:06.221Z,13.33
2018-05-11T11:13:07.483Z,12.27
2018-05-11T11:16:08.773Z,11.47
2018-05-11T11:19:10.041Z,14.67
2018-05-11T11:22:11.307Z,13.37
2018-05-11T11:25:12.554Z,9.97
2018-05-11T11:28:13.814Z,16.07
2018-05-11T11:31:15.090Z,14.63
2018-05-11T11:34:16.409Z,11.20
2018-05-11T11:37:17.636Z,13.60
2018-05-11T11:40:18.879Z,12.70
2018-05-11T11:43:20.145Z,13.50
2018-05-11T11:46:21.426Z,17.87
2018-05-11T11:49:22.667Z,9.73
2018-05-11T11:52:23.953Z,12.10
2018-05-11T11:55:25.934Z,18.47
2018-05-11T11:58:27.194Z,13.47
2018-05-11T12:01:28.468Z,14.80
2018-05-11T12:04:29.695Z,10.23
2018-05-11T12:07:30.974Z,12.83
2018-05-11T12:10:32.221Z,15.40
2018-05-11T12:13:33.462Z,9.27
2018-05-11T12:16:34.710Z,11.03
2018-05-11T12:19:36.725Z,11.03
2018-05-11T12:22:37.949Z,13.87
2018-05-11T12:25:39.923Z,8.30
2018-05-11T12:28:41.917Z,14.70
2018-05-11T12:31:43.928Z,10.03
2018-05-11T12:34:45.182Z,10.83
2018-05-11T12:37:46.455Z,10.00
2018-05-11T12:40:47.697Z,8.93
2018-05-11T12:43:48.942Z,8.77
2018-05-11T12:46:50.193Z,6.50
2018-05-11T12:49:51.476Z,10.67
2018-05-11T12:52:53.552Z,11.40
2018-05-11T12:55:54.776Z,9.17
2018-05-11T12:58:56.020Z,9.43
2018-05-11T13:01:57.266Z,8.57
2018-05-11T13:04:58.536Z,11.03
2018-05-11T13:07:59.813Z,14.73
2018-05-11T13:11:01.096Z,11.13
2018-05-11T13:14:02.346Z,11.93
2018-05-11T13:17:04.361Z,8.60
2018-05-11T13:20:05.601Z,14.33
2018-05-11T13:23:06.839Z,6.00
2018-05-11T13:26:08.105Z,28.23
2018-05-11T13:29:09.397Z,16.33
2018-05-11T13:32:10.649Z,9.70
2018-05-11T13:35:11.922Z,12.47
2018-05-11T13:38:13.167Z,13.90
2018-05-11T13:41:14.420Z,22.33
2018-05-11T13:44:15.643Z,11.83
2018-05-11T13:47:17.642Z,16.23
2018-05-11T13:50:18.915Z,12.27
2018-05-11T13:53:20.174Z,13.70
2018-05-11T13:56:21.462Z,12.23
2018-05-11T13:59:22.745Z,10.23
2018-05-11T14:02:23.995Z,8.83
2018-05-11T14:05:25.241Z,13.13
2018-05-11T14:08:26.486Z,9.63
2018-05-11T14:11:27.743Z,7.20
2018-05-11T14:14:29.000Z,7.70
2018-05-11T14:17:30.978Z,5.40
2018-05-11T14:20:32.992Z,7.27
2018-05-11T14:23:34.229Z,10.40
2018-05-11T14:26:35.507Z,9.10
2018-05-11T14:29:36.734Z,7.93
2018-05-11T14:32:37.980Z,6.77
2018-05-11T14:35:39.222Z,7.33
2018-05-11T14:38:40.475Z,8.90
2018-05-11T14:41:41.729Z,7.73
2018-05-11T14:44:42.959Z,6.30
2018-05-11T14:47:44.920Z,9.23
2018-05-11T14:50:46.174Z,8.80
2018-05-11T14:53:47.395Z,5.63
2018-05-11T14:56:48.638Z,10.27
2018-05-11T14:59:49.902Z,6.47
2018-05-11T15:02:51.166Z,6.13
2018-05-11T15:05:52.422Z,8.10
2018-05-11T15:08:54.441Z,9.00
2018-05-11T15:11:55.716Z,10.40
2018-05-11T15:14:56.966Z,9.53
2018-05-11T15:17:58.209Z,8.63
2018-05-11T15:20:59.473Z,7.73
2018-05-11T15:24:00.749Z,7.03
2018-05-11T15:27:01.996Z,9.83
2018-05-11T15:30:03.276Z,9.63
2018-05-11T15:33:04.537Z,9.00
2018-05-11T15:36:05.783Z,17.77
2018-05-11T15:39:07.064Z,11.83
2018-05-11T15:42:08.311Z,13.17
2018-05-11T15:45:09.579Z,10.60
2018-05-11T15:48:10.821Z,13.43
2018-05-11T15:51:12.825Z,11.50
2018-05-11T15:54:14.097Z,14.03
2018-05-11T15:57:15.378Z,16.63
2018-05-11T16:00:16.637Z,16.57
2018-05-11T16:03:17.886Z,16.40
2018-05-11T16:06:19.109Z,21.70
2018-05-11T16:09:21.101Z,15.30
2018-05-11T16:12:23.116Z,19.70
2018-05-11T16:15:24.411Z,10.40
2018-05-11T16:18:25.661Z,11.87
2018-05-11T16:21:26.906Z,12.57
2018-05-11T16:24:28.170Z,10.60
2018-05-11T16:27:29.443Z,13.93
2018-05-11T16:30:30.726Z,10.77
2018-05-11T16:33:31.973Z,13.33
2018-05-11T16:36:33.202Z,7.50
2018-05-11T16:39:34.455Z,7.30
2018-05-11T16:42:35.706Z,6.97
2018-05-11T16:45:37.706Z,6.27
2018-05-11T16:48:38.959Z,11.60
2018-05-11T16:51:40.983Z,10.53
2018-05-11T16:54:42.219Z,9.07
2018-05-11T16:57:43.473Z,15.77
2018-05-11T17:00:44.724Z,9.90
2018-05-11T17:03:46.009Z,7.00
2018-05-11T17:06:47.249Z,10.33
2018-05-11T17:09:49.275Z,11.40
2018-05-11T17:12:50.522Z,9.23
2018-05-11T17:15:51.797Z,8.43
2018-05-11T17:18:53.065Z,12.50
2018-05-11T17:21:54.299Z,9.73
2018-05-11T17:24:55.572Z,12.20
2018-05-11T17:27:56.827Z,12.70
2018-05-11T17:30:58.095Z,9.07
2018-05-11T17:33:59.319Z,10.80
2018-05-11T17:37:00.585Z,14.83
2018-05-11T17:40:01.839Z,9.93
2018-05-11T17:43:03.188Z,7.53
2018-05-11T17:46:05.148Z,12.67
2018-05-11T17:49:06.422Z,8.30
2018-05-11T17:52:07.668Z,15.20
2018-05-11T17:55:08.925Z,10.53
2018-05-11T17:58:10.200Z,6.23
2018-05-11T18:01:11.500Z,20.57
2018-05-11T18:04:12.742Z,12.97
2018-05-11T18:07:13.994Z,8.23
2018-05-11T18:10:15.276Z,14.40
2018-05-11T18:13:16.554Z,5.43
2018-05-11T18:16:17.813Z,10.63
2018-05-11T18:19:19.055Z,5.50
2018-05-11T18:22:20.309Z,12.27
2018-05-11T18:25:21.565Z,15.03
2018-05-11T18:28:22.828Z,5.90
2018-05-11T18:31:24.077Z,13.90
2018-05-11T18:34:25.345Z,16.80
2018-05-11T18:37:26.612Z,5.60
2018-05-11T18:40:27.891Z,6.63
2018-05-11T18:43:29.126Z,7.03
2018-05-11T18:46:30.401Z,8.17
2018-05-11T18:49:31.658Z,9.03
2018-05-11T18:52:32.924Z,11.63
2018-05-11T18:55:34.189Z,13.07
2018-05-11T18:58:35.452Z,13.30
2018-05-11T19:01:36.777Z,9.00
2018-05-11T19:04:38.069Z,10.80
2018-05-11T19:07:39.360Z,9.80
2018-05-11T19:10:40.617Z,6.47
2018-05-11T19:13:42.628Z,10.70
2018-05-11T19:16:43.924Z,11.90
2018-05-11T19:19:45.938Z,8.00
2018-05-11T19:22:47.190Z,8.53
2018-05-11T19:25:48.470Z,5.23
2018-05-11T19:28:49.749Z,6.30
2018-05-11T19:31:51.054Z,4.30
2018-05-11T19:34:53.035Z,5.97
2018-05-11T19:37:55.063Z,13.60
2018-05-11T19:40:56.327Z,7.50
2018-05-11T19:43:57.620Z,9.70
2018-05-11T19:46:58.914Z,5.17
2018-05-11T19:50:00.962Z,13.80
2018-05-11T19:53:02.268Z,3.30
2018-05-11T19:56:03.664Z,12.10
2018-05-11T19:59:04.876Z,6.23
2018-05-11T20:02:06.906Z,3.67
2018-05-11T20:05:08.189Z,5.10
2018-05-11T20:08:09.464Z,7.53
2018-05-11T20:11:10.737Z,9.80
2018-05-11T20:14:12.022Z,5.57
2018-05-11T20:17:14.006Z,9.53
2018-05-11T20:20:16.042Z,6.80
2018-05-11T20:23:17.332Z,8.00
2018-05-11T20:26:19.362Z,4.87
2018-05-11T20:29:20.658Z,10.77
2018-05-11T20:32:22.043Z,9.23
2018-05-11T20:35:23.212Z,12.03
2018-05-11T20:38:25.238Z,6.93
2018-05-11T20:41:26.493Z,5.30
2018-05-11T20:44:27.794Z,5.27
2018-05-11T20:47:29.103Z,6.50
2018-05-11T20:50:30.381Z,9.47
2018-05-11T20:53:31.637Z,11.13
2018-05-11T20:56:32.890Z,6.80
2018-05-11T20:59:34.921Z,12.07
2018-05-11T21:02:36.205Z,13.77
2018-05-11T21:05:37.456Z,5.40
2018-05-11T21:08:38.764Z,8.00
2018-05-11T21:11:40.015Z,12.90
2018-05-11T21:14:42.170Z,6.00
2018-05-11T21:17:43.306Z,8.30
2018-05-11T21:20:44.614Z,4.50
2018-05-11T21:23:45.899Z,10.80
2018-05-11T21:26:47.917Z,9.20
2018-05-11T21:29:49.175Z,7.33
2018-05-11T21:32:50.471Z,5.97
2018-05-11T21:35:51.739Z,5.70
2018-05-11T21:38:53.005Z,6.97
2018-05-11T21:41:54.282Z,11.50
2018-05-11T21:44:56.336Z,7.63
2018-05-11T21:47:57.598Z,8.53
2018-05-11T21:50:58.876Z,5.30
2018-05-11T21:54:00.162Z,5.90
2018-05-11T21:57:02.208Z,14.57
2018-05-11T22:00:04.370Z,6.70
2018-05-11T22:03:05.676Z,14.73
2018-05-11T22:06:07.689Z,15.03
2018-05-11T22:09:08.978Z,10.60
2018-05-11T22:12:10.257Z,6.50
2018-05-11T22:15:11.555Z,8.57
2018-05-11T22:18:13.575Z,8.70
2018-05-11T22:21:14.827Z,11.87
2018-05-11T22:24:16.114Z,9.40
2018-05-11T22:27:17.437Z,7.63
2018-05-11T22:30:19.542Z,6.67
2018-05-11T22:33:20.803Z,17.53
2018-05-11T22:36:22.125Z,11.23
2018-05-11T22:39:24.158Z,11.13
2018-05-11T22:42:25.432Z,10.60
2018-05-11T22:45:26.701Z,11.00
2018-05-11T22:48:27.975Z,12.20
2018-05-11T22:51:29.237Z,10.27
2018-05-11T22:54:30.470Z,7.17
2018-05-11T22:57:31.703Z,6.90
2018-05-11T23:00:39.934Z,7.10
2018-05-11T23:03:41.978Z,9.30
2018-05-11T23:06:43.182Z,4.70
2018-05-11T23:09:45.158Z,15.13
2018-05-11T23:12:47.158Z,6.40
2018-05-11T23:15:48.408Z,7.87
2018-05-11T23:18:49.669Z,17.10
2018-05-11T23:21:51.650Z,6.07
2018-05-11T23:24:53.620Z,4.40
2018-05-11T23:27:55.650Z,11.17
2018-05-11T23:30:57.614Z,8.70
2018-05-11T23:33:58.874Z,6.50
2018-05-11T23:37:00.150Z,7.70
2018-05-11T23:40:01.380Z,5.30
2018-05-11T23:43:03.424Z,9.70
2018-05-11T23:46:04.663Z,5.60
2018-05-11T23:49:05.937Z,4.50
2018-05-11T23:52:07.183Z,5.30
2018-05-11T23:55:08.469Z,5.07
2018-05-11T23:58:09.736Z,7.80
